createdAt,value
2022-10-19T00:01:02.559Z,17.00
2022-10-19T00:03:29.527Z,17.00
2022-10-19T00:05:56.397Z,16.90
2022-10-19T00:08:23.177Z,16.90
2022-10-19T00:10:49.973Z,16.80
2022-10-19T00:13:16.801Z,16.80
2022-10-19T00:15:45.140Z,16.80
2022-10-19T00:18:11.965Z,16.80
2022-10-19T00:20:38.743Z,16.80
2022-10-19T00:23:05.542Z,16.80
2022-10-19T00:25:32.366Z,16.80
2022-10-19T00:27:59.171Z,16.80
2022-10-19T00:30:25.942Z,16.80
2022-10-19T00:32:52.717Z,16.80
2022-10-19T00:35:19.469Z,16.80
2022-10-19T00:37:46.226Z,16.90
2022-10-19T00:40:13.169Z,16.90
2022-10-19T00:42:39.996Z,16.80
2022-10-19T00:45:14.637Z,16.80
2022-10-19T00:47:43.514Z,16.80
2022-10-19T00:50:11.094Z,16.80
2022-10-19T00:52:38.043Z,16.80
2022-10-19T00:55:06.884Z,16.70
2022-10-19T00:57:35.225Z,16.70
2022-10-19T01:00:05.026Z,16.60
2022-10-19T01:02:32.163Z,16.60
2022-10-19T01:04:59.677Z,16.60
2022-10-19T01:07:27.795Z,16.60
2022-10-19T01:09:55.869Z,16.60
2022-10-19T01:12:43.338Z,16.50
2022-10-19T01:15:31.168Z,16.50
2022-10-19T01:18:03.836Z,16.50
2022-10-19T01:20:49.121Z,16.50
2022-10-19T01:23:49.501Z,16.40
2022-10-19T01:26:31.565Z,16.40
2022-10-19T01:29:18.638Z,16.30
2022-10-19T01:32:04.060Z,16.30
2022-10-19T01:34:42.709Z,16.30
2022-10-19T01:37:47.672Z,16.30
2022-10-19T01:40:26.862Z,16.30
2022-10-19T01:43:11.463Z,16.30
2022-10-19T01:45:58.383Z,16.30
2022-10-19T01:48:35.696Z,16.30
2022-10-19T01:51:09.535Z,16.30
2022-10-19T01:53:42.703Z,16.20
2022-10-19T01:56:11.371Z,16.30
2022-10-19T01:58:41.118Z,16.30
2022-10-19T02:03:43.365Z,16.30
2022-10-19T02:06:13.616Z,16.30
2022-10-19T02:08:49.118Z,16.30
2022-10-19T02:11:17.142Z,16.30
2022-10-19T02:13:46.522Z,16.30
2022-10-19T02:16:26.362Z,16.30
2022-10-19T02:18:55.152Z,16.20
2022-10-19T02:21:22.279Z,16.20
2022-10-19T02:23:51.820Z,16.20
2022-10-19T02:26:21.727Z,16.20
2022-10-19T02:28:49.402Z,16.20
2022-10-19T02:31:16.642Z,16.20
2022-10-19T02:33:43.643Z,16.20
2022-10-19T02:36:10.453Z,16.10
2022-10-19T02:38:37.404Z,16.10
2022-10-19T02:41:15.108Z,16.10
2022-10-19T02:43:47.977Z,16.10
2022-10-19T02:46:32.390Z,16.10
2022-10-19T02:49:01.134Z,16.10
2022-10-19T02:51:34.069Z,16.10
2022-10-19T02:54:04.249Z,16.10
2022-10-19T02:56:33.535Z,16.10
2022-10-19T02:59:00.932Z,16.10
2022-10-19T03:01:27.768Z,16.10
2022-10-19T03:03:54.574Z,16.00
2022-10-19T03:06:21.381Z,16.00
2022-10-19T03:08:48.243Z,15.90
2022-10-19T03:11:15.055Z,15.90
2022-10-19T03:13:42.792Z,15.90
2022-10-19T03:16:13.152Z,15.80
2022-10-19T03:18:40.500Z,15.90
2022-10-19T03:21:10.355Z,15.80
2022-10-19T03:23:38.072Z,15.80
2022-10-19T03:26:07.629Z,15.80
2022-10-19T03:28:37.083Z,15.80
2022-10-19T03:31:03.901Z,15.80
2022-10-19T03:33:30.768Z,15.80
2022-10-19T03:36:13.894Z,15.80
2022-10-19T03:38:40.846Z,15.70
2022-10-19T03:41:08.370Z,15.70
2022-10-19T03:43:35.600Z,15.70
2022-10-19T03:46:02.438Z,15.60
2022-10-19T03:48:29.218Z,15.60
2022-10-19T03:51:05.144Z,15.60
2022-10-19T03:53:33.234Z,15.60
2022-10-19T03:56:13.450Z,15.60
2022-10-19T03:58:41.447Z,15.60
2022-10-19T04:01:11.131Z,15.60
2022-10-19T04:03:38.370Z,15.60
2022-10-19T04:06:07.631Z,15.60
2022-10-19T04:08:34.643Z,15.60
2022-10-19T04:11:03.320Z,15.60
2022-10-19T04:13:30.824Z,15.60
2022-10-19T04:15:57.653Z,15.60
2022-10-19T04:18:24.613Z,15.60
2022-10-19T04:21:02.549Z,15.60
2022-10-19T04:23:32.189Z,15.60
2022-10-19T04:26:04.285Z,15.60
2022-10-19T04:28:31.701Z,15.60
2022-10-19T04:31:02.482Z,15.60
2022-10-19T04:33:29.254Z,15.60
2022-10-19T04:36:04.018Z,15.60
2022-10-19T04:38:31.065Z,15.60
2022-10-19T04:41:05.778Z,15.60
2022-10-19T04:43:32.873Z,15.60
2022-10-19T04:46:08.256Z,15.60
2022-10-19T04:48:37.282Z,15.60
2022-10-19T04:51:05.183Z,15.60
2022-10-19T04:53:33.065Z,15.60
2022-10-19T04:55:59.929Z,15.50
2022-10-19T04:58:27.968Z,15.50
2022-10-19T05:00:54.756Z,15.60
2022-10-19T05:03:21.628Z,15.60
2022-10-19T05:05:48.437Z,15.60
2022-10-19T05:08:15.348Z,15.50
2022-10-19T05:10:45.438Z,15.40
2022-10-19T05:13:14.717Z,15.40
2022-10-19T05:15:41.702Z,15.40
2022-10-19T05:18:08.486Z,15.40
2022-10-19T05:20:35.351Z,15.50
2022-10-19T05:23:06.231Z,15.50
2022-10-19T05:25:34.320Z,15.50
2022-10-19T05:28:01.071Z,15.40
2022-10-19T05:30:28.137Z,15.40
2022-10-19T05:32:54.973Z,15.40
2022-10-19T05:35:22.655Z,15.40
2022-10-19T05:37:53.848Z,15.40
2022-10-19T05:40:20.791Z,15.40
2022-10-19T05:42:47.724Z,15.40
2022-10-19T05:45:14.568Z,15.40
2022-10-19T05:47:41.347Z,15.40
2022-10-19T05:50:08.404Z,15.40
2022-10-19T05:52:35.180Z,15.50
2022-10-19T05:55:02.004Z,15.40
2022-10-19T05:57:28.790Z,15.50
2022-10-19T05:59:58.372Z,15.50
2022-10-19T06:02:25.156Z,15.50
2022-10-19T06:05:22.596Z,15.50
2022-10-19T06:07:49.380Z,15.50
2022-10-19T06:10:16.208Z,15.40
2022-10-19T06:12:43.092Z,15.50
2022-10-19T06:15:10.245Z,15.50
2022-10-19T06:17:37.139Z,15.50
2022-10-19T06:20:04.683Z,15.50
2022-10-19T06:22:31.519Z,15.50
2022-10-19T06:24:58.303Z,15.40
2022-10-19T06:27:25.185Z,15.40
2022-10-19T06:29:51.979Z,15.40
2022-10-19T06:32:18.746Z,15.50
2022-10-19T06:34:45.526Z,15.40
2022-10-19T06:37:12.343Z,15.40
2022-10-19T06:39:39.244Z,15.40
2022-10-19T06:42:07.487Z,15.40
2022-10-19T06:44:34.285Z,15.40
2022-10-19T06:47:01.071Z,15.40
2022-10-19T06:49:28.081Z,15.30
2022-10-19T06:51:54.823Z,15.30
2022-10-19T06:54:21.687Z,15.20
2022-10-19T06:59:17.653Z,15.30
2022-10-19T07:01:44.463Z,15.30
2022-10-19T07:04:11.401Z,15.30
2022-10-19T07:06:38.334Z,15.30
2022-10-19T07:09:05.213Z,15.40
2022-10-19T07:11:32.225Z,15.40
2022-10-19T07:13:59.153Z,15.40
2022-10-19T07:16:25.957Z,15.40
2022-10-19T07:18:53.425Z,15.30
2022-10-19T07:21:22.197Z,15.30
2022-10-19T07:23:49.198Z,15.30
2022-10-19T07:26:26.808Z,15.30
2022-10-19T07:28:56.459Z,15.30
2022-10-19T07:31:25.034Z,15.30
2022-10-19T07:33:56.660Z,15.30
2022-10-19T07:36:24.445Z,15.30
2022-10-19T07:38:51.241Z,15.30
2022-10-19T07:41:20.715Z,15.30
2022-10-19T07:43:48.947Z,15.30
2022-10-19T07:46:18.806Z,15.30
2022-10-19T07:48:46.177Z,15.30
2022-10-19T07:51:15.406Z,15.30
2022-10-19T07:53:43.031Z,15.40
2022-10-19T07:56:18.955Z,15.40
2022-10-19T07:58:46.195Z,15.40
2022-10-19T08:01:18.769Z,15.40
2022-10-19T08:06:33.498Z,15.40
2022-10-19T08:09:00.896Z,15.40
2022-10-19T08:11:35.293Z,15.50
2022-10-19T08:14:03.320Z,15.50
2022-10-19T08:16:41.757Z,15.50
2022-10-19T08:19:13.505Z,15.50
2022-10-19T08:21:42.691Z,15.50
2022-10-19T08:24:11.119Z,15.50
2022-10-19T08:26:39.155Z,15.40
2022-10-19T08:29:18.926Z,15.40
2022-10-19T08:31:47.445Z,15.40
2022-10-19T08:34:15.870Z,15.40
2022-10-19T08:36:43.093Z,15.40
2022-10-19T08:39:12.716Z,15.40
2022-10-19T08:41:54.686Z,15.40
2022-10-19T08:44:39.782Z,15.40
2022-10-19T08:47:40.156Z,15.40
2022-10-19T08:50:22.499Z,15.40
2022-10-19T08:53:03.710Z,15.30
2022-10-19T08:55:58.643Z,15.30
2022-10-19T08:58:36.150Z,15.40
2022-10-19T09:01:45.303Z,15.40
2022-10-19T09:04:23.292Z,15.30
2022-10-19T09:07:14.599Z,15.20
2022-10-19T09:09:50.405Z,15.20
2022-10-19T09:12:32.386Z,15.10
2022-10-19T09:15:07.110Z,15.20
2022-10-19T09:17:34.195Z,15.30
2022-10-19T09:20:25.060Z,15.30
2022-10-19T09:23:11.053Z,15.30
2022-10-19T09:25:40.981Z,15.20
2022-10-19T09:28:33.921Z,15.40
2022-10-19T09:31:12.030Z,15.40
2022-10-19T09:33:41.912Z,15.50
2022-10-19T09:36:15.008Z,15.40
2022-10-19T09:38:50.978Z,15.40
2022-10-19T09:41:23.556Z,15.40
2022-10-19T09:43:54.429Z,15.40
2022-10-19T09:49:15.704Z,15.40
2022-10-19T09:51:52.974Z,15.40
2022-10-19T09:54:36.100Z,15.30
2022-10-19T09:57:04.245Z,15.30
2022-10-19T09:59:35.183Z,15.30
2022-10-19T10:02:13.958Z,15.40
2022-10-19T10:04:40.947Z,15.40
2022-10-19T10:07:16.502Z,15.40
2022-10-19T10:09:44.881Z,15.30
2022-10-19T10:12:15.453Z,15.40
2022-10-19T10:14:44.816Z,15.40
2022-10-19T10:17:18.957Z,15.50
2022-10-19T10:20:06.252Z,15.50
2022-10-19T10:22:36.205Z,15.50
2022-10-19T10:25:13.720Z,15.30
2022-10-19T10:27:40.736Z,15.00
2022-10-19T10:30:15.283Z,14.80
2022-10-19T10:32:51.305Z,14.80
2022-10-19T10:35:49.350Z,14.80
2022-10-19T10:38:25.827Z,14.80
2022-10-19T10:40:56.711Z,14.70
2022-10-19T10:43:32.602Z,14.60
2022-10-19T10:46:08.095Z,14.50
2022-10-19T10:48:44.886Z,14.50
2022-10-19T10:51:38.479Z,14.50
2022-10-19T10:54:31.241Z,14.60
2022-10-19T10:57:20.680Z,14.50
2022-10-19T11:00:08.184Z,14.50
2022-10-19T11:02:34.954Z,14.70
2022-10-19T11:05:24.558Z,14.80
2022-10-19T11:08:14.240Z,14.80
2022-10-19T11:10:52.835Z,14.90
2022-10-19T11:13:43.588Z,14.90
2022-10-19T11:16:16.802Z,14.90
2022-10-19T11:18:55.141Z,14.90
2022-10-19T11:21:43.133Z,14.90
2022-10-19T11:24:25.855Z,14.90
2022-10-19T11:27:13.475Z,14.90
2022-10-19T11:29:55.115Z,15.00
2022-10-19T11:32:34.773Z,15.00
2022-10-19T11:35:13.291Z,14.90
2022-10-19T11:38:17.629Z,15.00
2022-10-19T11:40:54.230Z,15.10
2022-10-19T11:43:59.112Z,15.10
2022-10-19T11:46:32.259Z,15.10
2022-10-19T11:49:17.667Z,15.20
2022-10-19T11:51:57.660Z,15.30
2022-10-19T11:54:39.560Z,15.30
2022-10-19T11:57:30.347Z,15.30
2022-10-19T12:00:14.491Z,15.40
2022-10-19T12:02:54.466Z,15.50
2022-10-19T12:05:49.788Z,15.60
2022-10-19T12:08:25.474Z,15.60
2022-10-19T12:11:12.750Z,15.60
2022-10-19T12:13:54.640Z,15.50
2022-10-19T12:16:28.371Z,15.40
2022-10-19T12:19:00.554Z,15.40
2022-10-19T12:21:33.365Z,15.40
2022-10-19T12:24:04.041Z,15.40
2022-10-19T12:26:35.082Z,15.30
2022-10-19T12:29:13.183Z,15.30
2022-10-19T12:31:40.757Z,15.30
2022-10-19T12:34:26.287Z,15.30
2022-10-19T12:37:07.103Z,15.30
2022-10-19T12:39:53.169Z,15.30
2022-10-19T12:42:28.832Z,15.10
2022-10-19T12:45:14.623Z,15.10
2022-10-19T12:48:01.427Z,15.10
2022-10-19T12:50:50.357Z,15.20
2022-10-19T12:53:38.316Z,15.30
2022-10-19T12:56:39.153Z,15.30
2022-10-19T12:59:20.034Z,15.30
2022-10-19T13:01:48.076Z,15.40
2022-10-19T13:04:25.148Z,15.40
2022-10-19T13:06:57.911Z,15.40
2022-10-19T13:09:27.735Z,15.40
2022-10-19T13:12:16.114Z,15.40
2022-10-19T13:14:55.922Z,15.30
2022-10-19T13:17:37.741Z,15.30
2022-10-19T13:20:13.869Z,15.40
2022-10-19T13:22:40.886Z,15.40
2022-10-19T13:25:16.898Z,15.40
2022-10-19T13:27:45.300Z,15.40
2022-10-19T13:30:42.301Z,15.40
2022-10-19T13:33:24.864Z,15.40
2022-10-19T13:36:01.243Z,15.30
2022-10-19T13:38:47.148Z,15.30
2022-10-19T13:41:26.075Z,15.30
2022-10-19T13:44:03.158Z,15.30
2022-10-19T13:46:29.901Z,15.20
2022-10-19T13:49:06.081Z,15.20
2022-10-19T13:51:51.141Z,15.20
2022-10-19T13:54:20.987Z,15.20
2022-10-19T13:57:23.039Z,15.20
2022-10-19T14:00:05.447Z,15.30
2022-10-19T14:02:38.266Z,15.40
2022-10-19T14:05:33.898Z,15.40
2022-10-19T14:08:25.322Z,15.50
2022-10-19T14:11:02.548Z,15.50
2022-10-19T14:13:30.127Z,15.40
2022-10-19T14:16:00.268Z,15.20
2022-10-19T14:18:27.046Z,15.10
2022-10-19T14:21:01.138Z,15.00
2022-10-19T14:23:33.481Z,14.90
2022-10-19T14:26:21.681Z,14.70
2022-10-19T14:28:54.099Z,14.70
2022-10-19T14:31:24.764Z,14.70
2022-10-19T14:33:54.235Z,14.60
2022-10-19T14:36:23.853Z,14.50
2022-10-19T14:38:54.579Z,14.30
2022-10-19T14:41:27.518Z,14.20
2022-10-19T14:43:55.637Z,14.20
2022-10-19T14:46:32.500Z,14.20
2022-10-19T14:49:02.211Z,14.20
2022-10-19T14:51:32.270Z,14.30
2022-10-19T14:54:08.193Z,14.30
2022-10-19T14:56:38.568Z,14.20
2022-10-19T14:59:21.175Z,14.20
2022-10-19T15:01:54.149Z,14.20
2022-10-19T15:04:27.682Z,14.00
2022-10-19T15:06:55.595Z,14.00
2022-10-19T15:09:47.369Z,14.10
2022-10-19T15:12:18.779Z,14.00
2022-10-19T15:14:47.134Z,13.90
2022-10-19T15:17:31.400Z,13.80
2022-10-19T15:20:01.329Z,13.80
2022-10-19T15:22:31.518Z,13.70
2022-10-19T15:25:01.296Z,13.70
2022-10-19T15:27:43.564Z,13.70
2022-10-19T15:30:21.062Z,13.80
2022-10-19T15:32:57.465Z,13.80
2022-10-19T15:35:36.074Z,13.70
2022-10-19T15:38:16.697Z,13.70
2022-10-19T15:40:45.504Z,13.70
2022-10-19T15:43:30.495Z,13.70
2022-10-19T15:46:01.162Z,13.70
2022-10-19T15:48:51.060Z,13.70
2022-10-19T15:51:23.656Z,13.70
2022-10-19T15:54:00.086Z,13.70
2022-10-19T15:56:29.095Z,13.70
2022-10-19T15:58:57.902Z,13.70
2022-10-19T16:01:31.136Z,13.70
2022-10-19T16:03:59.515Z,13.60
2022-10-19T16:06:29.256Z,13.50
2022-10-19T16:08:56.535Z,13.40
2022-10-19T16:11:24.311Z,13.30
2022-10-19T16:13:51.466Z,13.40
2022-10-19T16:16:25.290Z,13.40
2022-10-19T16:18:52.724Z,13.40
2022-10-19T16:21:21.235Z,13.40
2022-10-19T16:23:48.382Z,13.30
2022-10-19T16:26:16.564Z,13.30
2022-10-19T16:28:43.800Z,13.30
2022-10-19T16:31:11.315Z,13.30
2022-10-19T16:33:38.104Z,13.30
2022-10-19T16:36:07.189Z,13.40
2022-10-19T16:38:34.762Z,13.40
2022-10-19T16:41:07.687Z,13.30
2022-10-19T16:43:35.489Z,13.30
2022-10-19T16:46:03.284Z,13.30
2022-10-19T16:48:30.651Z,13.30
2022-10-19T16:51:12.164Z,13.30
2022-10-19T16:53:39.031Z,13.30
2022-10-19T16:56:14.960Z,13.30
2022-10-19T16:58:41.969Z,13.20
2022-10-19T17:01:19.390Z,13.20
2022-10-19T17:03:48.292Z,13.20
2022-10-19T17:06:16.014Z,13.10
2022-10-19T17:11:38.351Z,13.10
2022-10-19T17:14:08.380Z,12.90
2022-10-19T17:16:37.283Z,12.90
2022-10-19T17:19:06.222Z,12.90
2022-10-19T17:21:35.411Z,13.00
2022-10-19T17:24:05.496Z,12.90
2022-10-19T17:26:37.858Z,12.90
2022-10-19T17:29:05.841Z,13.00
2022-10-19T17:31:33.063Z,13.00
2022-10-19T17:34:00.860Z,13.00
2022-10-19T17:36:46.224Z,12.90
2022-10-19T17:39:18.997Z,12.90
2022-10-19T17:41:47.295Z,12.80
2022-10-19T17:44:14.882Z,12.80
2022-10-19T17:46:42.124Z,12.70
2022-10-19T17:49:09.956Z,12.70
2022-10-19T17:51:37.962Z,12.70
2022-10-19T17:54:11.369Z,12.70
2022-10-19T17:56:39.280Z,12.60
2022-10-19T17:59:08.837Z,12.70
2022-10-19T18:01:36.433Z,12.60
2022-10-19T18:04:03.858Z,12.60
2022-10-19T18:06:32.860Z,12.60
2022-10-19T18:09:00.978Z,12.60
2022-10-19T18:11:42.201Z,12.60
2022-10-19T18:14:10.401Z,12.60
2022-10-19T18:16:45.843Z,12.70
2022-10-19T18:19:14.969Z,12.70
2022-10-19T18:21:43.968Z,12.70
2022-10-19T18:24:19.475Z,12.60
2022-10-19T18:26:47.424Z,12.60
2022-10-19T18:29:20.438Z,12.60
2022-10-19T18:31:51.554Z,12.50
2022-10-19T18:34:23.753Z,12.50
2022-10-19T18:36:51.207Z,12.50
2022-10-19T18:39:18.842Z,12.50
2022-10-19T18:41:45.712Z,12.50
2022-10-19T18:44:13.728Z,12.60
2022-10-19T18:46:41.114Z,12.60
2022-10-19T18:49:09.007Z,12.50
2022-10-19T18:51:36.589Z,12.50
2022-10-19T18:54:03.616Z,12.50
2022-10-19T18:56:33.402Z,12.40
2022-10-19T18:59:00.397Z,12.40
2022-10-19T19:01:28.383Z,12.40
2022-10-19T19:03:57.316Z,12.40
2022-10-19T19:06:31.689Z,12.40
2022-10-19T19:09:00.279Z,12.40
2022-10-19T19:11:30.665Z,12.40
2022-10-19T19:14:06.266Z,12.40
2022-10-19T19:16:35.855Z,12.40
2022-10-19T19:19:02.655Z,12.40
2022-10-19T19:21:31.446Z,12.50
2022-10-19T19:24:00.631Z,12.50
2022-10-19T19:26:31.103Z,12.50
2022-10-19T19:28:58.018Z,12.40
2022-10-19T19:31:25.984Z,12.40
2022-10-19T19:33:52.858Z,12.40
2022-10-19T19:36:20.183Z,12.40
2022-10-19T19:38:48.996Z,12.40
2022-10-19T19:41:16.446Z,12.40
2022-10-19T19:43:43.807Z,12.40
2022-10-19T19:46:16.670Z,12.40
2022-10-19T19:48:46.783Z,12.40
2022-10-19T19:51:17.067Z,12.30
2022-10-19T19:53:44.297Z,12.30
2022-10-19T19:56:13.103Z,12.30
2022-10-19T19:58:41.390Z,12.30
2022-10-19T20:01:13.870Z,12.20
2022-10-19T20:03:41.784Z,12.20
2022-10-19T20:06:09.388Z,12.20
2022-10-19T20:08:36.955Z,12.20
2022-10-19T20:11:09.656Z,12.20
2022-10-19T20:13:37.062Z,12.10
2022-10-19T20:16:08.958Z,12.10
2022-10-19T20:18:35.865Z,12.10
2022-10-19T20:21:03.665Z,12.00
2022-10-19T20:23:30.885Z,12.00
2022-10-19T20:25:57.811Z,11.90
2022-10-19T20:28:26.525Z,11.90
2022-10-19T20:31:07.607Z,11.90
2022-10-19T20:33:37.524Z,11.80
2022-10-19T20:36:17.877Z,11.70
2022-10-19T20:38:50.498Z,11.60
2022-10-19T20:41:18.471Z,11.60
2022-10-19T20:43:45.684Z,11.50
2022-10-19T20:46:17.910Z,11.50
2022-10-19T20:48:45.576Z,11.50
2022-10-19T20:51:21.454Z,11.50
2022-10-19T20:53:50.671Z,11.50
2022-10-19T20:56:21.450Z,11.50
2022-10-19T20:58:50.341Z,11.40
2022-10-19T21:01:19.135Z,11.40
2022-10-19T21:03:52.639Z,11.30
2022-10-19T21:06:21.449Z,11.30
2022-10-19T21:08:48.643Z,11.30
2022-10-19T21:11:18.624Z,11.30
2022-10-19T21:13:46.472Z,11.30
2022-10-19T21:16:18.539Z,11.20
2022-10-19T21:18:46.688Z,11.10
2022-10-19T21:21:17.172Z,11.10
2022-10-19T21:23:45.888Z,11.00
2022-10-19T21:26:13.076Z,11.00
2022-10-19T21:28:41.809Z,11.00
2022-10-19T21:31:09.613Z,10.90
2022-10-19T21:33:36.708Z,10.90
2022-10-19T21:36:05.790Z,10.90
2022-10-19T21:38:33.236Z,10.90
2022-10-19T21:41:01.519Z,10.90
2022-10-19T21:44:23.077Z,10.90
2022-10-19T21:46:50.427Z,10.80
2022-10-19T21:49:17.575Z,10.80
2022-10-19T21:51:50.732Z,10.80
2022-10-19T21:54:20.148Z,10.80
2022-10-19T21:56:48.089Z,10.90
2022-10-19T21:59:15.764Z,10.90
2022-10-19T22:01:42.961Z,10.90
2022-10-19T22:04:15.473Z,10.90
2022-10-19T22:06:43.064Z,10.90
2022-10-19T22:09:14.494Z,10.90
2022-10-19T22:11:41.914Z,10.90
2022-10-19T22:14:10.234Z,10.90
2022-10-19T22:16:37.187Z,10.90
2022-10-19T22:19:05.158Z,10.80
2022-10-19T22:21:33.182Z,10.80
2022-10-19T22:24:05.973Z,10.80
2022-10-19T22:26:35.972Z,10.70
2022-10-19T22:29:03.961Z,10.70
2022-10-19T22:31:31.859Z,10.70
2022-10-19T22:34:01.395Z,10.70
2022-10-19T22:36:28.284Z,10.80
2022-10-19T22:38:55.211Z,10.80
2022-10-19T22:41:22.179Z,10.80
2022-10-19T22:43:48.875Z,10.70
2022-10-19T22:46:15.627Z,10.70
2022-10-19T22:48:42.467Z,10.70
2022-10-19T22:51:09.255Z,10.70
2022-10-19T22:53:36.106Z,10.70
2022-10-19T22:56:02.915Z,10.80
2022-10-19T22:58:29.677Z,10.80
2022-10-19T23:01:06.692Z,10.80
2022-10-19T23:03:33.936Z,10.80
2022-10-19T23:06:00.805Z,10.80
2022-10-19T23:08:27.687Z,10.70
2022-10-19T23:10:54.843Z,10.70
2022-10-19T23:13:21.742Z,10.70
2022-10-19T23:15:48.546Z,10.60
2022-10-19T23:18:15.321Z,10.60
2022-10-19T23:20:42.210Z,10.60
2022-10-19T23:23:09.622Z,10.60
2022-10-19T23:25:36.359Z,10.50
2022-10-19T23:28:03.081Z,10.50
2022-10-19T23:30:29.807Z,10.50
2022-10-19T23:32:56.543Z,10.50
2022-10-19T23:35:23.282Z,10.50
2022-10-19T23:37:50.030Z,10.50
2022-10-19T23:40:16.802Z,10.50
2022-10-19T23:42:43.562Z,10.50
2022-10-19T23:45:12.826Z,10.40
2022-10-19T23:47:39.608Z,10.50
2022-10-19T23:50:06.738Z,10.40
2022-10-19T23:52:33.510Z,10.40
2022-10-19T23:55:00.311Z,10.40
2022-10-19T23:57:27.142Z,10.40
2022-10-19T23:59:53.938Z,10.40
